createdAt,value
2018-08-17T00:00:03.988Z,18.60
2018-08-17T00:01:09.831Z,18.55
2018-08-17T00:02:15.763Z,18.54
2018-08-17T00:03:22.438Z,18.54
2018-08-17T00:04:28.712Z,18.54
2018-08-17T00:05:35.021Z,18.53
2018-08-17T00:06:41.610Z,18.53
2018-08-17T00:07:47.748Z,18.52
2018-08-17T00:08:54.202Z,18.48
2018-08-17T00:10:00.647Z,18.49
2018-08-17T00:11:06.672Z,18.48
2018-08-17T00:12:12.658Z,18.48
2018-08-17T00:13:18.727Z,18.54
2018-08-17T00:14:24.690Z,18.49
2018-08-17T00:15:30.834Z,18.52
2018-08-17T00:16:36.944Z,18.59
2018-08-17T00:17:43.261Z,18.61
2018-08-17T00:18:49.384Z,18.59
2018-08-17T00:19:55.970Z,18.50
2018-08-17T00:21:02.310Z,18.39
2018-08-17T00:22:08.252Z,18.28
2018-08-17T00:23:14.292Z,18.23
2018-08-17T00:24:20.581Z,18.24
2018-08-17T00:25:26.558Z,18.22
2018-08-17T00:26:32.429Z,18.23
2018-08-17T00:27:38.744Z,18.23
2018-08-17T00:28:45.117Z,18.26
2018-08-17T00:29:51.765Z,18.23
2018-08-17T00:30:57.714Z,18.14
2018-08-17T00:32:03.703Z,18.08
2018-08-17T00:33:09.735Z,18.08
2018-08-17T00:34:16.156Z,18.07
2018-08-17T00:35:22.508Z,18.10
2018-08-17T00:36:28.104Z,18.07
2018-08-17T00:37:34.488Z,18.10
2018-08-17T00:38:40.836Z,18.04
2018-08-17T00:39:47.139Z,18.02
2018-08-17T00:40:53.109Z,17.97
2018-08-17T00:41:59.113Z,17.97
2018-08-17T00:43:05.252Z,18.02
2018-08-17T00:44:11.655Z,17.96
2018-08-17T00:45:23.082Z,17.95
2018-08-17T00:46:29.419Z,17.94
2018-08-17T00:47:35.963Z,17.91
2018-08-17T00:48:41.892Z,17.90
2018-08-17T00:49:49.015Z,17.96
2018-08-17T00:50:55.240Z,17.91
2018-08-17T00:52:01.657Z,17.84
2018-08-17T00:53:07.305Z,17.77
2018-08-17T00:54:13.656Z,17.81
2018-08-17T00:55:19.877Z,17.86
2018-08-17T00:56:26.248Z,17.88
2018-08-17T00:57:32.792Z,18.07
2018-08-17T00:58:39.177Z,18.22
2018-08-17T00:59:45.428Z,18.33
2018-08-17T01:00:51.735Z,18.43
2018-08-17T01:02:02.003Z,18.28
2018-08-17T01:03:07.628Z,18.07
2018-08-17T01:04:14.021Z,17.78
2018-08-17T01:05:21.568Z,17.76
2018-08-17T01:06:27.814Z,17.75
2018-08-17T01:07:34.314Z,17.70
2018-08-17T01:08:40.671Z,17.69
2018-08-17T01:09:46.615Z,17.74
2018-08-17T01:10:52.644Z,17.76
2018-08-17T01:11:58.955Z,17.81
2018-08-17T01:13:04.227Z,17.79
2018-08-17T01:14:10.310Z,17.77
2018-08-17T01:15:16.560Z,17.73
2018-08-17T01:16:22.569Z,17.73
2018-08-17T01:17:29.016Z,17.74
2018-08-17T01:18:34.651Z,17.73
2018-08-17T01:19:40.795Z,17.78
2018-08-17T01:20:47.199Z,17.77
2018-08-17T01:21:53.639Z,17.73
2018-08-17T01:22:59.963Z,17.71
2018-08-17T01:24:05.578Z,17.64
2018-08-17T01:25:12.272Z,17.67
2018-08-17T01:26:18.597Z,17.73
2018-08-17T01:27:24.867Z,17.67
2018-08-17T01:28:31.040Z,17.68
2018-08-17T01:29:37.307Z,17.64
2018-08-17T01:30:43.613Z,17.57
2018-08-17T01:31:49.596Z,17.53
2018-08-17T01:32:56.129Z,17.48
2018-08-17T01:34:02.832Z,17.46
2018-08-17T01:35:09.188Z,17.48
2018-08-17T01:36:15.561Z,17.47
2018-08-17T01:37:22.612Z,17.46
2018-08-17T01:38:29.043Z,17.47
2018-08-17T01:39:35.324Z,17.49
2018-08-17T01:40:41.584Z,17.48
2018-08-17T01:41:47.952Z,17.44
2018-08-17T01:42:54.269Z,17.49
2018-08-17T01:44:00.755Z,17.51
2018-08-17T01:45:06.656Z,17.48
2018-08-17T01:46:12.999Z,17.47
2018-08-17T01:47:19.347Z,17.40
2018-08-17T01:48:25.380Z,17.34
2018-08-17T01:49:31.789Z,17.38
2018-08-17T01:50:38.044Z,17.38
2018-08-17T01:51:44.359Z,17.35
2018-08-17T01:52:51.376Z,17.35
2018-08-17T01:53:57.594Z,17.37
2018-08-17T01:55:03.648Z,17.43
2018-08-17T01:56:10.218Z,17.50
2018-08-17T01:57:16.636Z,17.44
2018-08-17T01:58:23.052Z,17.40
2018-08-17T01:59:29.376Z,17.36
2018-08-17T02:00:35.829Z,17.35
2018-08-17T02:01:42.116Z,17.33
2018-08-17T02:02:48.552Z,17.31
2018-08-17T02:03:54.718Z,17.29
2018-08-17T02:05:01.250Z,17.29
2018-08-17T02:06:07.712Z,17.30
2018-08-17T02:07:14.033Z,17.28
2018-08-17T02:08:20.842Z,17.15
2018-08-17T02:09:26.760Z,17.12
2018-08-17T02:10:32.815Z,17.11
2018-08-17T02:11:39.439Z,17.11
2018-08-17T02:12:45.846Z,17.09
2018-08-17T02:13:52.133Z,17.11
2018-08-17T02:14:58.489Z,17.10
2018-08-17T02:16:05.373Z,17.02
2018-08-17T02:17:11.614Z,17.05
2018-08-17T02:18:17.533Z,17.13
2018-08-17T02:19:23.924Z,17.09
2018-08-17T02:20:30.219Z,17.15
2018-08-17T02:21:37.429Z,17.06
2018-08-17T02:22:43.857Z,16.97
2018-08-17T02:23:49.997Z,16.95
2018-08-17T02:24:56.307Z,16.84
2018-08-17T02:26:02.576Z,16.99
2018-08-17T02:27:08.589Z,16.92
2018-08-17T02:28:14.579Z,16.98
2018-08-17T02:29:21.637Z,17.05
2018-08-17T02:30:28.221Z,17.12
2018-08-17T02:31:34.716Z,17.06
2018-08-17T02:32:41.108Z,16.99
2018-08-17T02:33:47.377Z,17.04
2018-08-17T02:34:53.720Z,17.02
2018-08-17T02:35:59.996Z,16.98
2018-08-17T02:37:06.323Z,17.03
2018-08-17T02:38:12.716Z,17.06
2018-08-17T02:39:20.049Z,17.00
2018-08-17T02:40:26.412Z,16.95
2018-08-17T02:41:32.360Z,16.81
2018-08-17T02:42:38.338Z,16.79
2018-08-17T02:43:44.382Z,16.81
2018-08-17T02:44:50.753Z,16.76
2018-08-17T02:45:57.018Z,16.70
2018-08-17T02:47:03.232Z,16.75
2018-08-17T02:48:10.459Z,16.76
2018-08-17T02:49:17.653Z,16.81
2018-08-17T02:50:24.037Z,16.84
2018-08-17T02:51:30.316Z,16.90
2018-08-17T02:52:36.643Z,16.96
2018-08-17T02:53:42.969Z,16.98
2018-08-17T02:54:49.288Z,17.00
2018-08-17T02:55:55.677Z,16.91
2018-08-17T02:57:01.973Z,16.85
2018-08-17T02:58:08.640Z,16.81
2018-08-17T02:59:14.649Z,16.71
2018-08-17T03:00:20.992Z,16.61
2018-08-17T03:01:27.176Z,16.57
2018-08-17T03:02:33.442Z,16.56
2018-08-17T03:03:39.758Z,16.59
2018-08-17T03:04:46.197Z,16.58
2018-08-17T03:05:52.559Z,16.56
2018-08-17T03:06:58.769Z,16.56
2018-08-17T03:08:04.993Z,16.59
2018-08-17T03:09:11.040Z,16.64
2018-08-17T03:10:17.330Z,16.67
2018-08-17T03:11:23.685Z,16.68
2018-08-17T03:12:30.083Z,16.73
2018-08-17T03:13:36.378Z,16.80
2018-08-17T03:14:42.673Z,16.75
2018-08-17T03:15:48.984Z,16.95
2018-08-17T03:16:55.246Z,16.98
2018-08-17T03:18:01.848Z,16.99
2018-08-17T03:19:08.126Z,17.03
2018-08-17T03:20:14.076Z,16.87
2018-08-17T03:21:20.338Z,16.71
2018-08-17T03:22:26.688Z,16.67
2018-08-17T03:23:32.999Z,16.70
2018-08-17T03:24:39.286Z,16.83
2018-08-17T03:25:45.592Z,16.80
2018-08-17T03:26:52.339Z,16.89
2018-08-17T03:27:58.748Z,17.20
2018-08-17T03:29:04.695Z,17.30
2018-08-17T03:30:10.982Z,17.16
2018-08-17T03:31:17.256Z,17.17
2018-08-17T03:32:23.611Z,17.16
2018-08-17T03:33:30.016Z,17.08
2018-08-17T03:34:36.425Z,16.96
2018-08-17T03:35:42.702Z,16.55
2018-08-17T03:36:49.204Z,16.30
2018-08-17T03:37:55.496Z,16.38
2018-08-17T03:39:01.943Z,16.69
2018-08-17T03:40:08.241Z,16.85
2018-08-17T03:41:14.505Z,16.74
2018-08-17T03:42:20.875Z,16.42
2018-08-17T03:43:27.234Z,16.35
2018-08-17T03:44:33.510Z,16.23
2018-08-17T03:45:40.125Z,16.28
2018-08-17T03:46:46.624Z,16.49
2018-08-17T03:47:52.785Z,16.39
2018-08-17T03:48:59.120Z,16.17
2018-08-17T03:50:04.813Z,16.06
2018-08-17T03:51:10.900Z,16.17
2018-08-17T03:52:17.317Z,16.49
2018-08-17T03:53:23.620Z,16.71
2018-08-17T03:54:29.929Z,16.70
2018-08-17T03:55:36.799Z,16.44
2018-08-17T03:56:43.299Z,16.16
2018-08-17T03:57:49.688Z,15.79
2018-08-17T03:58:55.969Z,15.90
2018-08-17T04:00:01.944Z,16.22
2018-08-17T04:01:07.987Z,16.36
2018-08-17T04:02:14.331Z,16.33
2018-08-17T04:03:20.657Z,16.39
2018-08-17T04:04:26.588Z,16.37
2018-08-17T04:05:33.236Z,16.29
2018-08-17T04:06:39.546Z,16.31
2018-08-17T04:07:45.750Z,16.40
2018-08-17T04:08:51.990Z,16.47
2018-08-17T04:09:58.273Z,16.58
2018-08-17T04:11:04.625Z,16.54
2018-08-17T04:12:10.548Z,16.46
2018-08-17T04:13:16.832Z,16.38
2018-08-17T04:14:23.168Z,16.41
2018-08-17T04:15:29.470Z,16.54
2018-08-17T04:16:35.749Z,16.66
2018-08-17T04:17:42.084Z,16.91
2018-08-17T04:18:48.386Z,16.96
2018-08-17T04:19:54.687Z,16.98
2018-08-17T04:21:00.988Z,17.00
2018-08-17T04:22:06.988Z,17.01
2018-08-17T04:23:13.569Z,17.05
2018-08-17T04:24:19.983Z,17.17
2018-08-17T04:25:26.260Z,17.20
2018-08-17T04:26:32.572Z,17.29
2018-08-17T04:27:38.865Z,17.37
2018-08-17T04:28:45.096Z,17.43
2018-08-17T04:29:51.381Z,17.51
2018-08-17T04:30:57.714Z,17.82
2018-08-17T04:32:03.643Z,17.98
2018-08-17T04:33:09.936Z,17.92
2018-08-17T04:34:16.548Z,17.96
2018-08-17T04:35:23.714Z,17.86
2018-08-17T04:36:30.104Z,17.96
2018-08-17T04:37:36.404Z,18.05
2018-08-17T04:38:42.723Z,18.16
2018-08-17T04:39:48.629Z,18.07
2018-08-17T04:40:55.023Z,17.77
2018-08-17T04:42:01.420Z,17.74
2018-08-17T04:43:07.277Z,17.65
2018-08-17T04:44:13.587Z,17.63
2018-08-17T04:45:19.847Z,17.88
2018-08-17T04:46:26.234Z,18.08
2018-08-17T04:47:32.703Z,18.11
2018-08-17T04:48:38.924Z,17.98
2018-08-17T04:49:45.551Z,17.86
2018-08-17T04:50:52.033Z,17.77
2018-08-17T04:51:58.338Z,17.88
2018-08-17T04:53:04.651Z,17.95
2018-08-17T04:54:11.076Z,17.73
2018-08-17T04:55:17.380Z,17.69
2018-08-17T04:56:23.690Z,17.81
2018-08-17T04:57:30.004Z,17.79
2018-08-17T04:58:36.340Z,17.83
2018-08-17T04:59:43.445Z,17.94
2018-08-17T05:00:49.784Z,17.88
2018-08-17T05:01:56.059Z,17.85
2018-08-17T05:03:02.376Z,17.82
2018-08-17T05:04:08.704Z,18.01
2018-08-17T05:05:15.032Z,18.07
2018-08-17T05:06:21.311Z,17.98
2018-08-17T05:07:28.043Z,18.01
2018-08-17T05:08:34.403Z,18.07
2018-08-17T05:09:40.565Z,18.22
2018-08-17T05:10:47.540Z,18.16
2018-08-17T05:11:55.258Z,18.15
2018-08-17T05:13:02.792Z,18.10
2018-08-17T05:14:10.354Z,17.97
2018-08-17T05:15:19.088Z,18.07
2018-08-17T05:16:27.400Z,18.34
2018-08-17T05:17:35.162Z,18.35
2018-08-17T05:18:43.427Z,18.47
2018-08-17T05:19:51.107Z,18.43
2018-08-17T05:20:59.138Z,18.55
2018-08-17T05:22:21.124Z,18.67
2018-08-17T05:23:37.730Z,18.67
2018-08-17T05:24:58.167Z,18.71
2018-08-17T05:26:18.678Z,18.84
2018-08-17T05:27:44.146Z,18.80
2018-08-17T05:29:03.055Z,18.74
2018-08-17T05:30:24.260Z,18.83
2018-08-17T05:31:48.483Z,18.83
2018-08-17T05:33:14.495Z,18.80
2018-08-17T05:34:35.715Z,18.88
2018-08-17T05:35:49.073Z,19.10
2018-08-17T05:37:09.144Z,19.21
2018-08-17T05:38:31.369Z,19.42
2018-08-17T05:39:49.576Z,19.56
2018-08-17T05:41:00.722Z,19.62
2018-08-17T05:42:09.257Z,19.66
2018-08-17T05:43:16.877Z,19.72
2018-08-17T05:44:25.046Z,19.78
2018-08-17T05:45:33.108Z,19.80
2018-08-17T05:46:40.899Z,19.80
2018-08-17T05:47:48.936Z,19.82
2018-08-17T05:49:08.474Z,19.67
2018-08-17T05:50:26.238Z,19.75
2018-08-17T05:51:45.597Z,19.82
2018-08-17T05:53:00.603Z,20.05
2018-08-17T05:54:19.017Z,20.23
2018-08-17T05:55:37.216Z,20.33
2018-08-17T05:56:48.169Z,20.20
2018-08-17T05:57:56.478Z,20.09
2018-08-17T05:59:05.310Z,20.24
2018-08-17T06:00:14.390Z,20.54
2018-08-17T06:01:21.827Z,20.40
2018-08-17T06:02:28.855Z,20.28
2018-08-17T06:03:44.742Z,20.24
2018-08-17T06:04:55.041Z,20.41
2018-08-17T06:06:01.380Z,20.66
2018-08-17T06:07:07.345Z,20.67
2018-08-17T06:08:13.721Z,20.80
2018-08-17T06:09:20.127Z,20.69
2018-08-17T06:10:26.046Z,20.62
2018-08-17T06:11:32.447Z,20.83
2018-08-17T06:12:38.752Z,20.73
2018-08-17T06:13:45.052Z,20.69
2018-08-17T06:14:51.347Z,20.57
2018-08-17T06:15:57.680Z,20.55
2018-08-17T06:17:03.280Z,20.86
2018-08-17T06:18:08.917Z,20.99
2018-08-17T06:19:15.199Z,21.09
2018-08-17T06:20:21.629Z,21.20
2018-08-17T06:21:27.449Z,20.96
2018-08-17T06:22:33.830Z,20.83
2018-08-17T06:23:39.532Z,21.08
2018-08-17T06:24:45.931Z,21.24
2018-08-17T06:25:51.928Z,21.37
2018-08-17T06:26:57.872Z,21.46
2018-08-17T06:28:03.459Z,21.53
2018-08-17T06:29:10.024Z,21.31
2018-08-17T06:30:16.386Z,21.29
2018-08-17T06:31:22.291Z,21.54
2018-08-17T06:32:28.691Z,21.49
2018-08-17T06:33:34.995Z,21.73
2018-08-17T06:34:41.314Z,21.62
2018-08-17T06:35:47.266Z,21.40
2018-08-17T06:36:53.340Z,21.29
2018-08-17T06:37:59.750Z,21.36
2018-08-17T06:39:17.904Z,21.59
2018-08-17T06:40:33.444Z,21.85
2018-08-17T06:41:51.578Z,21.89
2018-08-17T06:43:11.635Z,21.98
2018-08-17T06:44:32.317Z,22.08
2018-08-17T06:45:48.382Z,22.03
2018-08-17T06:47:07.788Z,21.95
2018-08-17T06:48:28.043Z,21.75
2018-08-17T06:49:52.282Z,21.71
2018-08-17T06:52:26.632Z,21.64
2018-08-17T06:53:45.091Z,21.68
2018-08-17T06:55:07.592Z,21.73
2018-08-17T06:56:18.473Z,21.80
2018-08-17T06:57:24.888Z,21.95
2018-08-17T06:58:31.221Z,22.20
2018-08-17T06:59:37.520Z,22.27
2018-08-17T07:00:43.804Z,22.19
2018-08-17T07:01:50.144Z,22.27
2018-08-17T07:02:57.034Z,22.32
2018-08-17T07:04:03.362Z,22.23
2018-08-17T07:05:09.471Z,22.27
2018-08-17T07:06:15.800Z,22.25
2018-08-17T07:07:22.176Z,22.24
2018-08-17T07:08:33.690Z,22.14
2018-08-17T07:09:40.366Z,22.23
2018-08-17T07:10:46.656Z,22.35
2018-08-17T07:11:52.968Z,22.39
2018-08-17T07:12:59.314Z,22.58
2018-08-17T07:14:05.250Z,22.77
2018-08-17T07:15:11.406Z,22.63
2018-08-17T07:16:17.841Z,22.58
2018-08-17T07:17:24.133Z,22.51
2018-08-17T07:18:30.473Z,22.35
2018-08-17T07:19:36.885Z,22.24
2018-08-17T07:20:42.853Z,22.33
2018-08-17T07:21:49.312Z,22.64
2018-08-17T07:22:55.572Z,22.83
2018-08-17T07:24:01.571Z,22.87
2018-08-17T07:25:08.081Z,22.78
2018-08-17T07:26:14.485Z,22.59
2018-08-17T07:27:20.833Z,22.83
2018-08-17T07:28:27.176Z,22.90
2018-08-17T07:29:33.470Z,22.92
2018-08-17T07:30:39.662Z,22.82
2018-08-17T07:31:45.964Z,22.96
2018-08-17T07:32:51.845Z,23.06
2018-08-17T07:33:58.444Z,23.06
2018-08-17T07:35:04.229Z,23.05
2018-08-17T07:36:10.747Z,23.08
2018-08-17T07:37:23.733Z,23.31
2018-08-17T07:38:41.860Z,23.43
2018-08-17T07:40:04.567Z,23.22
2018-08-17T07:41:23.114Z,23.38
2018-08-17T07:42:33.288Z,23.36
2018-08-17T07:43:39.633Z,23.51
2018-08-17T07:44:46.026Z,23.44
2018-08-17T07:45:51.916Z,23.38
2018-08-17T07:46:58.183Z,23.39
2018-08-17T07:48:04.302Z,23.64
2018-08-17T07:49:10.737Z,23.65
2018-08-17T07:50:16.824Z,23.54
2018-08-17T07:51:23.226Z,23.61
2018-08-17T07:52:29.534Z,23.66
2018-08-17T07:53:35.936Z,23.71
2018-08-17T07:54:42.313Z,23.99
2018-08-17T07:55:48.324Z,24.14
2018-08-17T07:56:54.681Z,24.23
2018-08-17T07:58:01.013Z,24.23
2018-08-17T07:59:07.324Z,24.09
2018-08-17T08:00:13.571Z,23.92
2018-08-17T08:01:19.916Z,23.74
2018-08-17T08:02:26.231Z,23.69
2018-08-17T08:03:32.689Z,24.01
2018-08-17T08:04:38.659Z,24.38
2018-08-17T08:05:45.113Z,24.31
2018-08-17T08:06:51.577Z,24.17
2018-08-17T08:07:57.996Z,24.38
2018-08-17T08:09:03.418Z,24.50
2018-08-17T08:10:08.947Z,24.68
2018-08-17T08:11:15.132Z,24.73
2018-08-17T08:12:21.600Z,24.73
2018-08-17T08:13:27.953Z,24.91
2018-08-17T08:14:34.257Z,24.81
2018-08-17T08:15:40.212Z,24.95
2018-08-17T08:16:46.659Z,25.17
2018-08-17T08:17:52.997Z,25.23
2018-08-17T08:18:59.116Z,25.23
2018-08-17T08:20:16.555Z,25.02
2018-08-17T08:21:22.572Z,24.95
2018-08-17T08:22:28.745Z,25.16
2018-08-17T08:23:35.097Z,25.29
2018-08-17T08:24:42.045Z,25.25
2018-08-17T08:25:49.804Z,24.86
2018-08-17T08:26:57.857Z,24.74
2018-08-17T08:28:05.124Z,24.75
2018-08-17T08:29:12.500Z,24.66
2018-08-17T08:30:20.793Z,24.75
2018-08-17T08:31:31.272Z,24.94
2018-08-17T08:32:38.279Z,24.81
2018-08-17T08:33:47.554Z,24.81
2018-08-17T08:34:55.256Z,24.95
2018-08-17T08:36:03.007Z,24.99
2018-08-17T08:37:09.988Z,25.14
2018-08-17T08:38:16.816Z,25.33
2018-08-17T08:39:23.542Z,25.23
2018-08-17T08:40:29.978Z,25.30
2018-08-17T08:41:36.047Z,25.51
2018-08-17T08:42:41.765Z,25.34
2018-08-17T08:43:47.658Z,25.24
2018-08-17T08:44:53.739Z,25.29
2018-08-17T08:45:59.783Z,25.40
2018-08-17T08:47:05.394Z,25.45
2018-08-17T08:48:11.167Z,25.75
2018-08-17T08:49:17.335Z,25.81
2018-08-17T08:50:23.190Z,25.87
2018-08-17T08:51:28.930Z,26.11
2018-08-17T08:52:35.077Z,26.03
2018-08-17T08:53:41.101Z,25.99
2018-08-17T08:54:54.363Z,26.01
2018-08-17T08:56:11.041Z,26.34
2018-08-17T08:57:20.972Z,25.96
2018-08-17T08:58:27.112Z,26.15
2018-08-17T08:59:32.791Z,26.19
2018-08-17T09:00:38.461Z,26.14
2018-08-17T09:01:44.341Z,25.90
2018-08-17T09:02:50.280Z,25.85
2018-08-17T09:03:56.730Z,25.98
2018-08-17T09:05:02.821Z,26.15
2018-08-17T09:06:08.521Z,26.51
2018-08-17T09:07:14.612Z,26.65
2018-08-17T09:08:21.082Z,26.58
2018-08-17T09:09:27.139Z,26.70
2018-08-17T09:10:33.115Z,26.81
2018-08-17T09:11:38.845Z,26.54
2018-08-17T09:12:44.631Z,26.20
2018-08-17T09:13:50.768Z,25.98
2018-08-17T09:14:56.960Z,25.98
2018-08-17T09:16:02.637Z,26.22
2018-08-17T09:17:08.472Z,26.26
2018-08-17T09:18:13.978Z,26.39
2018-08-17T09:19:19.850Z,26.58
2018-08-17T09:20:25.746Z,26.65
2018-08-17T09:21:32.752Z,26.78
2018-08-17T09:22:39.016Z,27.10
2018-08-17T09:23:45.204Z,27.03
2018-08-17T09:24:51.248Z,27.10
2018-08-17T09:25:57.033Z,27.18
2018-08-17T09:27:02.835Z,26.99
2018-08-17T09:28:08.644Z,27.15
2018-08-17T09:29:14.539Z,27.32
2018-08-17T09:30:21.425Z,27.51
2018-08-17T09:31:27.546Z,27.61
2018-08-17T09:32:34.879Z,27.65
2018-08-17T09:33:40.730Z,27.37
2018-08-17T09:34:46.940Z,27.32
2018-08-17T09:35:53.057Z,27.52
2018-08-17T09:36:58.871Z,27.26
2018-08-17T09:38:04.596Z,27.34
2018-08-17T09:39:10.109Z,27.40
2018-08-17T09:40:16.088Z,27.38
2018-08-17T09:41:22.111Z,27.46
2018-08-17T09:42:28.846Z,27.71
2018-08-17T09:43:35.185Z,27.79
2018-08-17T09:44:41.073Z,27.87
2018-08-17T09:45:47.156Z,27.90
2018-08-17T09:46:53.596Z,27.79
2018-08-17T09:47:59.560Z,27.57
2018-08-17T09:49:05.372Z,27.51
2018-08-17T09:50:10.381Z,27.49
2018-08-17T09:51:16.513Z,27.75
2018-08-17T09:52:22.758Z,27.95
2018-08-17T09:53:28.864Z,28.02
2018-08-17T09:54:34.594Z,28.14
2018-08-17T09:55:40.707Z,27.98
2018-08-17T09:56:46.827Z,27.77
2018-08-17T09:57:52.800Z,27.65
2018-08-17T09:58:58.804Z,27.89
2018-08-17T10:00:04.145Z,28.02
2018-08-17T10:01:09.645Z,28.00
2018-08-17T10:02:29.284Z,28.01
2018-08-17T10:03:35.710Z,27.45
2018-08-17T10:04:41.667Z,27.67
2018-08-17T10:05:47.416Z,27.73
2018-08-17T10:06:53.482Z,27.94
2018-08-17T10:08:04.421Z,27.70
2018-08-17T10:09:10.101Z,27.73
2018-08-17T10:10:16.337Z,27.59
2018-08-17T10:11:23.299Z,27.64
2018-08-17T10:12:28.971Z,27.66
2018-08-17T10:13:34.725Z,27.81
2018-08-17T10:14:40.503Z,27.63
2018-08-17T10:15:46.344Z,27.80
2018-08-17T10:16:52.308Z,27.96
2018-08-17T10:17:57.881Z,27.91
2018-08-17T10:19:04.033Z,27.81
2018-08-17T10:20:09.218Z,27.72
2018-08-17T10:21:15.588Z,27.52
2018-08-17T10:22:21.563Z,27.38
2018-08-17T10:23:27.444Z,27.68
2018-08-17T10:24:33.332Z,27.75
2018-08-17T10:25:39.219Z,27.57
2018-08-17T10:26:44.324Z,27.62
2018-08-17T10:27:50.276Z,27.49
2018-08-17T10:28:55.589Z,27.58
2018-08-17T10:30:01.479Z,27.68
2018-08-17T10:31:07.129Z,27.59
2018-08-17T10:32:12.852Z,27.60
2018-08-17T10:33:19.245Z,27.71
2018-08-17T10:34:25.310Z,27.89
2018-08-17T10:35:31.009Z,28.07
2018-08-17T10:36:47.619Z,28.14
2018-08-17T10:37:57.671Z,28.06
2018-08-17T10:39:03.080Z,28.00
2018-08-17T10:40:09.002Z,28.01
2018-08-17T10:41:14.849Z,27.77
2018-08-17T10:42:20.855Z,27.78
2018-08-17T10:43:26.524Z,27.96
2018-08-17T10:44:31.896Z,28.06
2018-08-17T10:45:37.640Z,28.27
2018-08-17T10:46:43.428Z,28.43
2018-08-17T10:47:49.485Z,28.28
2018-08-17T10:48:55.311Z,28.36
2018-08-17T10:50:01.054Z,28.66
2018-08-17T10:51:06.749Z,28.88
2018-08-17T10:52:12.952Z,29.02
2018-08-17T10:53:18.632Z,28.97
2018-08-17T10:54:25.204Z,28.78
2018-08-17T10:55:30.294Z,28.59
2018-08-17T10:56:36.700Z,28.83
2018-08-17T10:57:42.758Z,28.86
2018-08-17T10:58:48.556Z,29.10
2018-08-17T10:59:54.280Z,29.10
2018-08-17T11:01:00.440Z,29.29
2018-08-17T11:02:06.244Z,28.90
2018-08-17T11:03:12.072Z,28.80
2018-08-17T11:04:17.768Z,29.05
2018-08-17T11:05:23.831Z,29.11
2018-08-17T11:06:29.694Z,29.08
2018-08-17T11:07:35.107Z,28.89
2018-08-17T11:08:40.968Z,28.90
2018-08-17T11:09:46.798Z,29.07
2018-08-17T11:10:52.818Z,28.80
2018-08-17T11:12:00.005Z,28.98
2018-08-17T11:13:05.649Z,29.20
2018-08-17T11:14:11.391Z,29.04
2018-08-17T11:15:17.232Z,29.02
2018-08-17T11:16:22.956Z,29.20
2018-08-17T11:17:31.026Z,29.05
2018-08-17T11:18:37.050Z,29.09
2018-08-17T11:19:42.881Z,28.87
2018-08-17T11:20:49.455Z,28.70
2018-08-17T11:21:55.487Z,28.85
2018-08-17T11:23:01.207Z,28.84
2018-08-17T11:24:07.068Z,28.99
2018-08-17T11:25:12.590Z,28.78
2018-08-17T11:26:18.901Z,28.93
2018-08-17T11:27:24.888Z,29.08
2018-08-17T11:28:30.415Z,29.00
2018-08-17T11:29:36.075Z,28.90
2018-08-17T11:30:41.910Z,29.07
2018-08-17T11:31:47.237Z,29.22
2018-08-17T11:32:53.612Z,29.27
2018-08-17T11:33:59.545Z,29.37
2018-08-17T11:35:04.952Z,29.24
2018-08-17T11:36:11.673Z,29.44
2018-08-17T11:37:17.467Z,29.59
2018-08-17T11:38:23.500Z,29.60
2018-08-17T11:39:29.197Z,29.54
2018-08-17T11:40:35.244Z,29.59
2018-08-17T11:41:41.219Z,29.59
2018-08-17T11:42:47.245Z,29.33
2018-08-17T11:43:52.526Z,29.43
2018-08-17T11:44:58.216Z,29.74
2018-08-17T11:46:03.553Z,29.83
2018-08-17T11:47:09.612Z,29.78
2018-08-17T11:48:14.412Z,29.67
2018-08-17T11:49:20.247Z,29.66
2018-08-17T11:50:25.416Z,29.87
2018-08-17T11:51:31.304Z,30.11
2018-08-17T11:52:36.840Z,30.25
2018-08-17T11:53:42.011Z,29.90
2018-08-17T11:54:48.127Z,29.85
2018-08-17T11:55:53.730Z,29.78
2018-08-17T11:56:59.440Z,30.04
2018-08-17T11:58:05.198Z,30.23
2018-08-17T11:59:11.136Z,30.04
2018-08-17T12:00:17.891Z,30.29
2018-08-17T12:01:23.549Z,30.50
2018-08-17T12:02:29.391Z,30.07
2018-08-17T12:03:35.068Z,30.12
2018-08-17T12:04:40.512Z,30.05
2018-08-17T12:05:46.478Z,29.96
2018-08-17T12:06:52.271Z,30.21
2018-08-17T12:07:58.089Z,30.46
2018-08-17T12:09:03.288Z,30.41
2018-08-17T12:10:08.388Z,30.57
2018-08-17T12:11:14.021Z,30.44
2018-08-17T12:12:19.900Z,30.81
2018-08-17T12:13:25.693Z,30.89
2018-08-17T12:14:31.541Z,30.51
2018-08-17T12:15:37.034Z,30.25
2018-08-17T12:16:43.380Z,30.38
2018-08-17T12:17:49.283Z,30.22
2018-08-17T12:18:55.742Z,30.53
2018-08-17T12:20:01.595Z,30.25
2018-08-17T12:21:07.401Z,30.13
2018-08-17T12:22:13.202Z,29.74
2018-08-17T12:23:18.874Z,29.66
2018-08-17T12:24:24.799Z,29.85
2018-08-17T12:25:30.698Z,30.14
2018-08-17T12:26:36.148Z,30.25
2018-08-17T12:27:41.357Z,30.36
2018-08-17T12:28:47.271Z,30.54
2018-08-17T12:29:53.061Z,30.50
2018-08-17T12:30:58.445Z,30.30
2018-08-17T12:32:04.141Z,30.31
2018-08-17T12:33:10.380Z,30.49
2018-08-17T12:34:16.773Z,30.65
2018-08-17T12:35:22.185Z,30.63
2018-08-17T12:36:27.871Z,30.38
2018-08-17T12:37:33.663Z,30.01
2018-08-17T12:38:39.980Z,30.01
2018-08-17T12:39:45.900Z,30.31
2018-08-17T12:40:51.918Z,30.38
2018-08-17T12:41:57.679Z,30.30
2018-08-17T12:43:03.480Z,30.11
2018-08-17T12:44:09.168Z,30.05
2018-08-17T12:45:14.641Z,30.12
2018-08-17T12:46:20.396Z,30.55
2018-08-17T12:47:26.368Z,30.88
2018-08-17T12:48:32.207Z,30.97
2018-08-17T12:49:38.172Z,30.88
2018-08-17T12:50:43.575Z,30.76
2018-08-17T12:51:49.305Z,30.87
2018-08-17T12:52:54.951Z,30.95
2018-08-17T12:54:00.766Z,31.13
2018-08-17T12:55:06.123Z,31.27
2018-08-17T12:56:11.881Z,31.06
2018-08-17T12:57:17.074Z,30.84
2018-08-17T12:58:22.943Z,30.82
2018-08-17T12:59:28.656Z,30.84
2018-08-17T13:00:34.659Z,30.90
2018-08-17T13:01:40.960Z,31.19
2018-08-17T13:02:46.684Z,31.35
2018-08-17T13:03:52.352Z,31.25
2018-08-17T13:04:58.365Z,31.22
2018-08-17T13:06:04.080Z,31.04
2018-08-17T13:07:09.757Z,30.63
2018-08-17T13:08:15.563Z,30.43
2018-08-17T13:09:21.243Z,30.70
2018-08-17T13:10:27.055Z,30.57
2018-08-17T13:11:32.581Z,30.37
2018-08-17T13:12:39.059Z,30.21
2018-08-17T13:13:44.872Z,30.17
2018-08-17T13:14:50.197Z,29.75
2018-08-17T13:15:56.195Z,29.93
2018-08-17T13:17:01.995Z,30.28
2018-08-17T13:18:07.188Z,30.39
2018-08-17T13:19:12.896Z,30.56
2018-08-17T13:20:18.648Z,30.72
2018-08-17T13:21:24.481Z,30.43
2018-08-17T13:22:30.249Z,30.56
2018-08-17T13:23:36.079Z,30.67
2018-08-17T13:24:42.172Z,30.49
2018-08-17T13:25:47.924Z,30.39
2018-08-17T13:26:53.896Z,30.44
2018-08-17T13:27:59.696Z,30.28
2018-08-17T13:29:05.168Z,30.16
2018-08-17T13:30:11.444Z,30.22
2018-08-17T13:31:17.196Z,30.32
2018-08-17T13:32:22.880Z,30.34
2018-08-17T13:33:28.566Z,30.56
2018-08-17T13:34:34.256Z,30.73
2018-08-17T13:35:40.072Z,30.43
2018-08-17T13:36:45.547Z,30.45
2018-08-17T13:37:52.169Z,30.30
2018-08-17T13:38:58.743Z,30.45
2018-08-17T13:40:04.660Z,30.54
2018-08-17T13:41:12.405Z,30.64
2018-08-17T13:42:18.532Z,30.93
2018-08-17T13:43:25.246Z,31.19
2018-08-17T13:44:32.093Z,31.20
2018-08-17T13:45:39.085Z,30.89
2018-08-17T13:46:46.816Z,30.72
2018-08-17T13:47:53.452Z,30.93
2018-08-17T13:49:00.431Z,30.98
2018-08-17T13:50:06.247Z,30.92
2018-08-17T13:51:15.487Z,30.47
2018-08-17T13:52:21.231Z,30.43
2018-08-17T13:53:27.116Z,30.70
2018-08-17T13:54:32.896Z,30.67
2018-08-17T13:55:38.589Z,30.55
2018-08-17T13:56:44.425Z,30.63
2018-08-17T13:57:50.193Z,30.61
2018-08-17T13:58:55.886Z,30.88
2018-08-17T14:00:01.808Z,31.19
2018-08-17T14:01:07.619Z,31.26
2018-08-17T14:02:13.487Z,31.54
2018-08-17T14:03:19.287Z,31.48
2018-08-17T14:04:24.980Z,31.31
2018-08-17T14:05:31.430Z,30.99
2018-08-17T14:06:37.101Z,31.03
2018-08-17T14:07:42.930Z,31.15
2018-08-17T14:08:48.597Z,31.38
2018-08-17T14:09:54.400Z,31.63
2018-08-17T14:11:01.082Z,31.53
2018-08-17T14:12:06.041Z,31.67
2018-08-17T14:13:11.926Z,31.75
2018-08-17T14:14:17.631Z,31.22
2018-08-17T14:15:23.400Z,30.54
2018-08-17T14:16:29.834Z,30.28
2018-08-17T14:17:36.339Z,30.31
2018-08-17T14:18:42.160Z,30.37
2018-08-17T14:19:47.934Z,30.59
2018-08-17T14:20:54.216Z,31.12
2018-08-17T14:22:00.089Z,31.35
2018-08-17T14:23:06.212Z,31.54